Greene, North Dakota
Current Conditions -  °F | °C
As of 8:58 AM on Sunday 21 Dec 2014 (Local Time) from KMIB Reporting Station
Clear Clear  
Wind Chill:   Ceiling: Unl
Heat Index: 12°   Visibility: 10mi
Dew Point: 12°   Wind: 6mph
Humidity: 99%   Direction: 140°SE
Pressure: 29.52"   Gusts: NA
Location:  48.822°N, 101.868°W
Report Text: KMIB 211458Z AUTO 14005KT 10SM CLR M11/M11 A2952 RMK AO2 SLP027 T11091110 57018 $
Loading
Personal Weather Stations






























Interactive Weather Map New forecast layout! Learn more

10-Day Weather Forecast

Advertisements
Track Severe Weather on mobile